»·PEaware :: ASA4269 KSAN-KLAS

ASA4269 :: KSAN-KLAS

FLIGHT INFORMATION

Flight Status: Arrived
Operator:
Alaska Airlines
More flights by this operator :: More flights under this callsign
Pilot: Anonymous 25291 (25291)
Aircraft: BOEING 737-800
(B738)
More flights by this aircraft type
Origin: KSAN San Diego Intl-Lindbergh
United States
Destination: KLAS McCarran Intl
United States
More flights between these airports :: More routes between these airports
Route: +PADRZ2 CHKNN DCT SEBBY DCT YELAH/N0464F350 DCT MISEN KEPEC6
File this flight plan on PilotEdge
Remarks:
Altitude:
(Current/Filed)
36,000ft
Speed:
(Current/Filed)
450kts
Departed: 09-Nov-19 04:56 PM
Arrived: 09-Nov-19 05:52 PM
Distance/Time
Traveled:
225nm/0:56
Distance/Time
To Go:
Arrived

Flight Plot

Page will automatically refresh every two minutes.

Flight plan parsing failed; only flown route is shown


Map Options




Map Legend


Flown Route
Filed Route
Departure Airport
Arrival Airport
Navaid (VOR, NDB)
Fix

Horizontal Profiles

Position Reports

Time Latitude Longitude Heading Altitude Ground
Speed
09-Nov-19 16:32 32.733216 -117.196882 134 18ft 0kts
09-Nov-19 16:33 32.733216 -117.196882 134 18ft 0kts
09-Nov-19 16:34 32.733216 -117.196882 134 18ft 0kts
09-Nov-19 16:35 32.733216 -117.196882 134 18ft 0kts
09-Nov-19 16:36 32.733216 -117.196882 134 18ft 0kts
09-Nov-19 16:37 32.733216 -117.196882 134 18ft 0kts
09-Nov-19 16:38 32.733216 -117.196882 134 18ft 0kts
09-Nov-19 16:39 32.733216 -117.196882 134 18ft 0kts
09-Nov-19 16:40 32.733216 -117.196882 134 18ft 0kts
09-Nov-19 16:41 32.733216 -117.196882 134 18ft 0kts
09-Nov-19 16:42 32.733216 -117.196882 134 18ft 0kts
09-Nov-19 16:43 32.733216 -117.196882 134 18ft 0kts
09-Nov-19 16:44 32.733216 -117.196882 134 18ft 0kts
09-Nov-19 16:45 32.733216 -117.196882 134 18ft 0kts
09-Nov-19 16:46 32.733216 -117.196883 134 18ft 0kts
09-Nov-19 16:47 32.733570 -117.196837 199 17ft 4kts
09-Nov-19 16:48 32.733579 -117.196833 199 17ft 0kts
09-Nov-19 16:49 32.733468 -117.197009 257 17ft 3kts
09-Nov-19 16:50 32.733629 -117.197110 12 17ft 0kts
09-Nov-19 16:51 32.733545 -117.193888 106 21ft 20kts
09-Nov-19 16:52 32.731825 -117.186797 105 18ft 23kts
09-Nov-19 16:53 32.729809 -117.178482 107 20ft 21kts
09-Nov-19 16:54 32.730299 -117.176078 287 24ft 9kts
09-Nov-19 16:55 32.739124 -117.213512 288 911ft 187kts
09-Nov-19 16:56 32.770312 -117.268649 306 3924ft 219kts
09-Nov-19 16:57 32.807011 -117.330483 308 7025ft 251kts
09-Nov-19 16:58 32.852703 -117.400689 308 10318ft 280kts
09-Nov-19 16:59 32.901035 -117.475716 308 13882ft 292kts
09-Nov-19 17:00 32.954281 -117.558585 308 15264ft 345kts
09-Nov-19 17:01 33.011983 -117.648652 308 19342ft 348kts
09-Nov-19 17:02 33.073921 -117.739862 315 22609ft 367kts
09-Nov-19 17:03 33.152763 -117.820031 316 25251ft 392kts
09-Nov-19 17:04 33.237262 -117.904449 316 27861ft 414kts
09-Nov-19 17:05 33.330937 -117.995682 315 30149ft 439kts
09-Nov-19 17:06 33.427070 -118.089760 314 32547ft 452kts
09-Nov-19 17:07 33.525441 -118.186320 314 34866ft 457kts
09-Nov-19 17:08 33.636902 -118.262753 352 36075ft 491kts
09-Nov-19 17:09 33.749039 -118.190630 51 36915ft 483kts
09-Nov-19 17:10 33.836589 -118.071187 51 36935ft 487kts
09-Nov-19 17:11 33.924327 -117.950118 51 37030ft 490kts
09-Nov-19 17:12 34.013275 -117.827352 51 37030ft 488kts
09-Nov-19 17:13 34.099374 -117.708087 51 37033ft 488kts
09-Nov-19 17:14 34.184254 -117.590085 51 37022ft 488kts
09-Nov-19 17:15 34.272267 -117.467294 51 37024ft 488kts
09-Nov-19 17:16 34.359754 -117.344788 52 37024ft 488kts
09-Nov-19 17:17 34.443983 -117.226581 52 36780ft 494kts
09-Nov-19 17:18 34.533154 -117.101012 52 35778ft 489kts
09-Nov-19 17:19 34.621617 -116.975918 52 34795ft 494kts
09-Nov-19 17:20 34.706517 -116.855391 52 33859ft 495kts
09-Nov-19 17:21 34.796301 -116.727424 51 32885ft 498kts
09-Nov-19 17:22 34.893905 -116.605092 36 30211ft 514kts
09-Nov-19 17:24 35.001339 -116.502174 35 28287ft 475kts
09-Nov-19 17:25 35.100707 -116.404987 38 25712ft 448kts
09-Nov-19 17:26 35.179658 -116.307176 42 24072ft 428kts
09-Nov-19 17:27 35.263750 -116.201732 42 24024ft 432kts
09-Nov-19 17:28 35.346807 -116.097210 42 23114ft 427kts
09-Nov-19 17:29 35.429058 -115.993385 42 20012ft 412kts
09-Nov-19 17:30 35.505761 -115.896284 43 17369ft 383kts
09-Nov-19 17:31 35.577492 -115.805230 44 14916ft 363kts
09-Nov-19 17:32 35.645879 -115.718170 45 13417ft 343kts
09-Nov-19 17:33 35.709529 -115.636554 45 12928ft 308kts
09-Nov-19 17:34 35.749577 -115.546606 65 12933ft 304kts
09-Nov-19 17:35 35.791940 -115.459190 30 12943ft 299kts
09-Nov-19 17:36 35.868728 -115.418563 21 12931ft 299kts
09-Nov-19 17:37 35.945549 -115.380545 21 11776ft 301kts
09-Nov-19 17:38 36.019090 -115.344336 21 10938ft 267kts
09-Nov-19 17:39 36.036126 -115.269611 115 10938ft 279kts
09-Nov-19 17:40 36.023165 -115.177363 94 10932ft 274kts
09-Nov-19 17:41 36.016354 -115.083624 94 10372ft 271kts
09-Nov-19 17:42 36.009429 -114.989373 94 8797ft 271kts
09-Nov-19 17:42 36.003895 -114.914991 94 7330ft 251kts
09-Nov-19 17:44 35.998683 -114.823077 68 5861ft 211kts
09-Nov-19 17:45 36.036948 -114.832050 302 4921ft 180kts
09-Nov-19 17:45 36.055713 -114.878627 290 4932ft 183kts
09-Nov-19 17:46 36.071869 -114.936666 287 4969ft 177kts
09-Nov-19 17:48 36.076085 -115.007266 259 3929ft 173kts
09-Nov-19 17:48 36.072961 -115.052610 274 3201ft 153kts
09-Nov-19 17:49 36.073590 -115.103545 271 2426ft 147kts
09-Nov-19 17:50 36.073912 -115.143833 291 2096ft 42kts
09-Nov-19 17:51 36.077174 -115.146545 359 2103ft 6kts
09-Nov-19 17:52 36.078432 -115.146831 62 2101ft 12kts
09-Nov-19 17:53 36.079570 -115.142413 358 2083ft 14kts
09-Nov-19 17:54 36.084311 -115.140723 36 2067ft 12kts
09-Nov-19 17:55 36.085310 -115.140553 0 2065ft 0kts
09-Nov-19 17:56 36.085310 -115.140553 0 2065ft 0kts

Navigation Log

Ident Type
Flight plan parsing failed, navigation log unavailable